Pagrindinis puslapis
METAR-TAF:

METAR-TAF

Oro uostai :

Togiak, Aliaska, Jungtinės Amerikos Valstijos

platuma: 59-03N, ilguma: 160-24W, Aukštis: 6 m

Dabartinis oras

Ataskaita buvo paskelbta 18 minutes, ne 21:56 UTC
Vėjas 7 kt iš Šiaurės
Temperatūra 6°C
Drėgmė 93%
Slėgis 1004 hPa
Matomumas: 16.1 km
Su prošvaistėmis ne aukštis 3500 ft
Apsiniaukę ne aukštis 4600 ft
lietus

METAR: PATG 212156Z AUTO 36007KT 10SM -RA BKN035 OVC046 06/05 A2966 RMK AO2 SLP137 P0006 T00610050

Laikas: 14:14 (22:14 UTC)


TAF: trūkstamas

Orai ataskaitas ir orų prognozės (METAR, TAF).

turimą stotys yra geltonos ir raudonos taškus žemėlapyje.

Perkelti pele per norėdami pamatyti stoties vardą.

Tada spustelėkite, norėdami matyti oro stebėjimo ir prognozės.

Norėdami pakeisti žemėlapį: spustelėkite ant žalios mygtukų su juodo kryžiaus žemyn,; žalią mygtuką su brūkšneliu, jei norite nutolinti; arba žalių rodyklių gretimoms žemėlapius.


METAR-TAF: